createdAt,value
2018-10-11T00:02:06.994Z,12.70
2018-10-11T00:04:35.518Z,12.60
2018-10-11T00:07:04.085Z,12.50
2018-10-11T00:09:32.693Z,12.50
2018-10-11T00:12:01.170Z,12.50
2018-10-11T00:14:31.663Z,12.50
2018-10-11T00:17:01.307Z,12.50
2018-10-11T00:19:31.077Z,12.40
2018-10-11T00:22:05.569Z,12.30
2018-10-11T00:24:34.947Z,12.30
2018-10-11T00:27:03.492Z,12.30
2018-10-11T00:29:32.004Z,12.30
2018-10-11T00:32:00.500Z,12.40
2018-10-11T00:34:29.035Z,12.50
2018-10-11T00:36:57.534Z,12.50
2018-10-11T00:39:26.093Z,12.60
2018-10-11T00:41:54.632Z,12.60
2018-10-11T00:44:23.202Z,12.70
2018-10-11T00:46:51.729Z,12.70
2018-10-11T00:49:20.425Z,12.60
2018-10-11T00:51:48.953Z,12.60
2018-10-11T00:54:17.477Z,12.50
2018-10-11T00:56:45.988Z,12.60
2018-10-11T00:59:14.528Z,12.60
2018-10-11T01:01:43.113Z,12.60
2018-10-11T01:04:12.212Z,12.60
2018-10-11T01:06:41.004Z,12.50
2018-10-11T01:09:10.796Z,12.40
2018-10-11T01:11:39.679Z,12.30
2018-10-11T01:14:08.664Z,12.30
2018-10-11T01:16:37.192Z,12.20
2018-10-11T01:19:05.840Z,12.00
2018-10-11T01:21:34.393Z,12.00
2018-10-11T01:24:02.913Z,12.10
2018-10-11T01:26:31.484Z,12.10
2018-10-11T01:29:00.013Z,12.00
2018-10-11T01:31:28.553Z,12.10
2018-10-11T01:33:57.081Z,11.80
2018-10-11T01:36:25.624Z,11.80
2018-10-11T01:38:54.556Z,11.70
2018-10-11T01:41:23.324Z,11.60
2018-10-11T01:43:51.876Z,11.60
2018-10-11T01:46:20.425Z,11.60
2018-10-11T01:48:48.988Z,11.70
2018-10-11T01:51:17.540Z,11.90
2018-10-11T01:53:46.046Z,12.00
2018-10-11T01:56:14.605Z,12.10
2018-10-11T01:58:43.117Z,12.10
2018-10-11T02:01:11.656Z,12.20
2018-10-11T02:03:40.149Z,12.30
2018-10-11T02:06:08.713Z,12.40
2018-10-11T02:08:37.248Z,12.40
2018-10-11T02:11:05.797Z,12.40
2018-10-11T02:13:34.315Z,12.40
2018-10-11T02:16:02.906Z,12.30
2018-10-11T02:18:31.405Z,12.30
2018-10-11T02:20:59.985Z,12.30
2018-10-11T02:23:28.513Z,12.30
2018-10-11T02:25:57.074Z,12.30
2018-10-11T02:28:25.579Z,12.30
2018-10-11T02:30:54.130Z,12.40
2018-10-11T02:33:22.642Z,12.40
2018-10-11T02:35:51.172Z,12.40
2018-10-11T02:38:19.674Z,12.40
2018-10-11T02:40:48.195Z,12.40
2018-10-11T02:43:16.749Z,12.40
2018-10-11T02:45:45.250Z,12.50
2018-10-11T02:48:13.798Z,12.50
2018-10-11T02:50:42.282Z,12.40
2018-10-11T02:53:10.829Z,12.40
2018-10-11T02:55:39.421Z,12.40
2018-10-11T02:58:19.267Z,12.40
2018-10-11T03:00:47.860Z,12.40
2018-10-11T03:03:21.120Z,12.30
2018-10-11T03:05:49.702Z,12.30
2018-10-11T03:08:22.705Z,12.30
2018-10-11T03:10:51.364Z,12.30
2018-10-11T03:13:19.928Z,12.30
2018-10-11T03:15:48.472Z,12.20
2018-10-11T03:18:17.074Z,12.20
2018-10-11T03:20:46.117Z,12.10
2018-10-11T03:23:15.129Z,12.10
2018-10-11T03:25:44.713Z,12.00
2018-10-11T03:28:14.747Z,12.00
2018-10-11T03:30:43.727Z,12.00
2018-10-11T03:33:13.134Z,11.90
2018-10-11T03:35:43.108Z,11.90
2018-10-11T03:38:11.666Z,11.90
2018-10-11T03:40:40.205Z,11.90
2018-10-11T03:43:08.768Z,11.80
2018-10-11T03:45:37.286Z,11.80
2018-10-11T03:48:05.890Z,11.90
2018-10-11T03:50:34.404Z,11.80
2018-10-11T03:53:02.918Z,11.80
2018-10-11T03:55:31.402Z,11.90
2018-10-11T03:57:59.944Z,12.00
2018-10-11T04:00:28.542Z,12.00
2018-10-11T04:02:57.129Z,12.00
2018-10-11T04:05:25.680Z,11.90
2018-10-11T04:07:54.133Z,11.90
2018-10-11T04:10:22.655Z,11.80
2018-10-11T04:12:51.146Z,11.80
2018-10-11T04:15:19.635Z,11.80
2018-10-11T04:17:48.101Z,11.80
2018-10-11T04:20:16.556Z,11.80
2018-10-11T04:22:45.026Z,11.80
2018-10-11T04:25:13.473Z,11.80
2018-10-11T04:27:42.042Z,11.80
2018-10-11T04:30:10.571Z,11.80
2018-10-11T04:32:39.221Z,11.80
2018-10-11T04:35:07.708Z,11.70
2018-10-11T04:37:36.184Z,11.70
2018-10-11T04:40:04.704Z,11.70
2018-10-11T04:42:33.242Z,11.70
2018-10-11T04:45:01.667Z,11.70
2018-10-11T04:47:30.143Z,11.60
2018-10-11T04:49:58.636Z,11.60
2018-10-11T04:52:27.153Z,11.60
2018-10-11T04:54:55.601Z,11.70
2018-10-11T04:57:24.081Z,11.70
2018-10-11T04:59:52.638Z,11.70
2018-10-11T05:02:21.129Z,11.70
2018-10-11T05:04:49.685Z,11.60
2018-10-11T05:07:18.155Z,11.60
2018-10-11T05:09:46.652Z,11.60
2018-10-11T05:12:15.213Z,11.60
2018-10-11T05:14:45.038Z,11.60
2018-10-11T05:17:13.674Z,11.50
2018-10-11T05:19:42.193Z,11.60
2018-10-11T05:22:10.718Z,11.60
2018-10-11T05:24:39.274Z,11.60
2018-10-11T05:27:07.826Z,11.60
2018-10-11T05:29:36.365Z,11.60
2018-10-11T05:32:04.891Z,11.60
2018-10-11T05:34:33.394Z,11.60
2018-10-11T05:37:01.885Z,11.70
2018-10-11T05:39:30.459Z,11.80
2018-10-11T05:41:59.229Z,11.80
2018-10-11T05:44:28.096Z,11.70
2018-10-11T05:46:56.754Z,11.70
2018-10-11T05:49:25.460Z,11.60
2018-10-11T05:51:53.994Z,11.70
2018-10-11T05:54:22.531Z,11.70
2018-10-11T05:56:51.181Z,11.70
2018-10-11T05:59:19.686Z,11.70
2018-10-11T06:01:48.601Z,11.80
2018-10-11T06:04:17.199Z,11.80
2018-10-11T06:06:47.050Z,11.80
2018-10-11T06:09:15.598Z,11.90
2018-10-11T06:11:45.134Z,11.90
2018-10-11T06:14:14.137Z,11.90
2018-10-11T06:16:42.664Z,11.90
2018-10-11T06:19:12.939Z,12.00
2018-10-11T06:21:41.479Z,11.90
2018-10-11T06:24:09.997Z,12.00
2018-10-11T06:26:38.508Z,12.00
2018-10-11T06:29:07.129Z,12.10
2018-10-11T06:31:35.829Z,12.20
2018-10-11T06:34:04.326Z,12.20
2018-10-11T06:36:33.735Z,12.30
2018-10-11T06:39:02.557Z,12.30
2018-10-11T06:41:31.038Z,12.40
2018-10-11T06:43:59.627Z,12.50
2018-10-11T06:46:28.164Z,12.60
2018-10-11T06:48:56.742Z,12.70
2018-10-11T06:51:25.305Z,13.00
2018-10-11T06:53:53.832Z,13.20
2018-10-11T06:56:22.301Z,12.80
2018-10-11T06:58:50.814Z,12.40
2018-10-11T07:01:19.258Z,12.30
2018-10-11T07:03:47.711Z,12.30
2018-10-11T07:06:16.181Z,12.40
2018-10-11T07:08:44.677Z,12.40
2018-10-11T07:11:13.136Z,12.50
2018-10-11T07:13:41.891Z,12.60
2018-10-11T07:16:10.365Z,12.80
2018-10-11T07:18:38.869Z,12.80
2018-10-11T07:21:07.369Z,12.90
2018-10-11T07:23:36.093Z,13.00
2018-10-11T07:26:04.712Z,13.10
2018-10-11T07:28:33.068Z,13.20
2018-10-11T07:31:01.573Z,13.30
2018-10-11T07:33:30.047Z,13.40
2018-10-11T07:35:58.505Z,13.60
2018-10-11T07:38:27.001Z,13.60
2018-10-11T07:40:55.526Z,13.60
2018-10-11T07:43:24.015Z,13.60
2018-10-11T07:45:52.496Z,13.70
2018-10-11T07:48:20.977Z,13.70
2018-10-11T07:50:49.455Z,13.60
2018-10-11T07:53:17.932Z,13.80
2018-10-11T07:55:46.408Z,13.80
2018-10-11T07:58:14.905Z,13.90
2018-10-11T08:00:43.387Z,14.00
2018-10-11T08:03:11.869Z,14.10
2018-10-11T08:05:40.328Z,14.20
2018-10-11T08:08:08.821Z,14.40
2018-10-11T08:10:37.399Z,14.30
2018-10-11T08:13:05.893Z,14.30
2018-10-11T08:15:34.356Z,14.40
2018-10-11T08:18:03.065Z,14.40
2018-10-11T08:20:31.381Z,14.60
2018-10-11T08:22:59.918Z,14.70
2018-10-11T08:25:28.805Z,14.80
2018-10-11T08:27:56.956Z,14.80
2018-10-11T08:30:25.466Z,14.90
2018-10-11T08:32:53.933Z,15.00
2018-10-11T08:35:22.433Z,15.10
2018-10-11T08:37:51.042Z,15.30
2018-10-11T08:40:19.389Z,15.40
2018-10-11T08:42:47.844Z,15.40
2018-10-11T08:45:16.317Z,15.50
2018-10-11T08:47:44.766Z,15.60
2018-10-11T08:50:13.325Z,15.70
2018-10-11T08:52:41.777Z,15.70
2018-10-11T08:55:10.386Z,15.90
2018-10-11T08:57:39.037Z,16.00
2018-10-11T09:00:09.158Z,16.20
2018-10-11T09:02:37.614Z,16.20
2018-10-11T09:05:06.479Z,16.30
2018-10-11T09:07:34.986Z,16.40
2018-10-11T09:10:03.491Z,16.40
2018-10-11T09:12:31.977Z,16.50
2018-10-11T09:15:00.514Z,16.70
2018-10-11T09:17:29.086Z,16.70
2018-10-11T09:19:57.509Z,16.80
2018-10-11T09:22:25.996Z,17.00
2018-10-11T09:24:54.513Z,17.10
2018-10-11T09:27:22.974Z,17.20
2018-10-11T09:29:51.513Z,17.40
2018-10-11T09:32:19.973Z,17.40
2018-10-11T09:34:48.472Z,17.60
2018-10-11T09:37:16.943Z,17.90
2018-10-11T09:39:45.443Z,17.90
2018-10-11T09:42:13.900Z,17.80
2018-10-11T09:44:42.400Z,17.90
2018-10-11T09:47:10.882Z,18.00
2018-10-11T09:49:39.600Z,18.10
2018-10-11T09:52:08.175Z,18.20
2018-10-11T09:54:36.674Z,18.20
2018-10-11T09:57:15.153Z,18.30
2018-10-11T09:59:43.739Z,18.40
2018-10-11T10:02:13.137Z,18.30
2018-10-11T10:04:44.322Z,18.40
2018-10-11T10:07:12.976Z,18.50
2018-10-11T10:09:42.387Z,18.70
2018-10-11T10:12:11.312Z,18.70
2018-10-11T10:14:40.479Z,18.80
2018-10-11T10:17:09.048Z,18.90
2018-10-11T10:19:37.510Z,19.10
2018-10-11T10:22:06.078Z,18.90
2018-10-11T10:24:34.621Z,19.10
2018-10-11T10:27:03.306Z,19.20
2018-10-11T10:29:31.717Z,19.20
2018-10-11T10:32:00.657Z,19.20
2018-10-11T10:34:29.196Z,19.30
2018-10-11T10:36:57.724Z,19.30
2018-10-11T10:39:26.227Z,19.30
2018-10-11T10:41:54.806Z,19.30
2018-10-11T10:44:23.357Z,19.60
2018-10-11T10:46:51.857Z,19.70
2018-10-11T10:49:20.413Z,19.70
2018-10-11T10:51:48.901Z,19.60
2018-10-11T10:54:28.714Z,19.60
2018-10-11T10:56:57.872Z,19.70
2018-10-11T10:59:26.448Z,19.70
2018-10-11T11:02:03.499Z,19.90
2018-10-11T11:04:33.910Z,20.00
2018-10-11T11:07:05.225Z,20.10
2018-10-11T11:09:33.878Z,19.90
2018-10-11T11:12:02.340Z,19.90
2018-10-11T11:14:35.315Z,20.00
2018-10-11T11:17:03.781Z,20.20
2018-10-11T11:19:32.306Z,20.20
2018-10-11T11:22:00.823Z,20.30
2018-10-11T11:24:29.372Z,20.30
2018-10-11T11:26:57.850Z,20.40
2018-10-11T11:29:26.333Z,20.50
2018-10-11T11:31:54.787Z,20.50
2018-10-11T11:34:23.281Z,20.40
2018-10-11T11:36:51.761Z,20.30
2018-10-11T11:39:20.300Z,20.40
2018-10-11T11:41:48.792Z,20.50
2018-10-11T11:44:17.362Z,20.40
2018-10-11T11:46:45.886Z,20.30
2018-10-11T11:49:14.377Z,20.50
2018-10-11T11:51:42.877Z,20.50
2018-10-11T11:54:16.664Z,20.50
2018-10-11T11:56:45.180Z,20.60
2018-10-11T11:59:13.838Z,20.70
2018-10-11T12:01:42.406Z,20.80
2018-10-11T12:04:11.034Z,20.80
2018-10-11T12:06:39.775Z,20.80
2018-10-11T12:09:12.010Z,20.90
2018-10-11T12:11:40.824Z,21.00
2018-10-11T12:14:09.656Z,21.10
2018-10-11T12:16:38.761Z,21.20
2018-10-11T12:19:08.274Z,21.30
2018-10-11T12:21:36.814Z,21.30
2018-10-11T12:24:05.317Z,21.30
2018-10-11T12:26:33.782Z,21.20
2018-10-11T12:29:02.454Z,21.20
2018-10-11T12:31:30.784Z,21.10
2018-10-11T12:33:59.414Z,20.90
2018-10-11T12:36:27.987Z,20.90
2018-10-11T12:38:56.614Z,20.90
2018-10-11T12:41:24.984Z,21.00
2018-10-11T12:43:53.488Z,21.10
2018-10-11T12:46:21.994Z,21.00
2018-10-11T12:48:50.450Z,21.00
2018-10-11T12:51:18.945Z,21.00
2018-10-11T12:53:48.531Z,21.10
2018-10-11T12:56:15.946Z,21.30
2018-10-11T12:58:44.426Z,21.30
2018-10-11T13:01:17.270Z,21.40
2018-10-11T13:03:41.371Z,21.50
2018-10-11T13:06:09.865Z,21.30
2018-10-11T13:08:38.329Z,21.40
2018-10-11T13:11:06.869Z,21.40
2018-10-11T13:13:35.302Z,21.50
2018-10-11T13:16:05.037Z,21.40
2018-10-11T13:18:32.332Z,21.50
2018-10-11T13:21:00.809Z,21.50
2018-10-11T13:23:29.267Z,21.60
2018-10-11T13:25:57.753Z,21.70
2018-10-11T13:28:26.224Z,21.70
2018-10-11T13:30:54.729Z,21.60
2018-10-11T13:33:23.225Z,21.60
2018-10-11T13:35:51.736Z,21.80
2018-10-11T13:38:20.201Z,21.70
2018-10-11T13:40:48.818Z,21.70
2018-10-11T13:43:17.180Z,21.80
2018-10-11T13:45:45.677Z,21.70
2018-10-11T13:48:14.295Z,21.80
2018-10-11T13:50:42.757Z,22.00
2018-10-11T13:53:14.217Z,22.10
2018-10-11T13:55:39.752Z,22.20
2018-10-11T13:58:08.251Z,22.20
2018-10-11T14:00:36.777Z,22.30
2018-10-11T14:03:05.286Z,22.20
2018-10-11T14:05:33.746Z,22.10
2018-10-11T14:08:02.205Z,22.00
2018-10-11T14:10:30.790Z,21.90
2018-10-11T14:12:59.278Z,21.80
2018-10-11T14:15:27.740Z,21.70
2018-10-11T14:17:58.089Z,21.70
2018-10-11T14:20:24.707Z,21.60
2018-10-11T14:22:53.168Z,21.60
2018-10-11T14:25:21.679Z,21.50
2018-10-11T14:27:50.189Z,21.50
2018-10-11T14:30:18.711Z,21.50
2018-10-11T14:32:47.175Z,21.50
2018-10-11T14:35:15.709Z,21.50
2018-10-11T14:37:44.245Z,21.40
2018-10-11T14:40:12.733Z,21.40
2018-10-11T14:42:41.435Z,21.40
2018-10-11T14:45:09.901Z,21.50
2018-10-11T14:47:38.404Z,21.40
2018-10-11T14:50:06.994Z,21.40
2018-10-11T14:52:35.502Z,21.50
2018-10-11T14:55:04.105Z,21.40
2018-10-11T14:57:32.605Z,21.30
2018-10-11T15:00:01.162Z,21.30
2018-10-11T15:02:29.646Z,21.30
2018-10-11T15:04:58.187Z,21.30
2018-10-11T15:07:26.705Z,21.20
2018-10-11T15:09:55.203Z,21.10
2018-10-11T15:12:23.729Z,21.00
2018-10-11T15:14:52.193Z,21.10
2018-10-11T15:17:20.699Z,21.00
2018-10-11T15:19:49.205Z,21.00
2018-10-11T15:22:17.733Z,20.90
2018-10-11T15:24:46.225Z,20.90
2018-10-11T15:27:14.729Z,20.90
2018-10-11T15:29:43.252Z,20.80
2018-10-11T15:32:11.788Z,20.80
2018-10-11T15:34:40.246Z,20.70
2018-10-11T15:37:08.757Z,20.70
2018-10-11T15:39:37.272Z,20.60
2018-10-11T15:42:06.078Z,20.60
2018-10-11T15:44:34.592Z,20.50
2018-10-11T15:47:03.121Z,20.50
2018-10-11T15:49:31.585Z,20.50
2018-10-11T15:52:00.114Z,20.50
2018-10-11T15:54:28.567Z,20.40
2018-10-11T15:56:57.328Z,20.40
2018-10-11T15:59:25.787Z,20.40
2018-10-11T16:01:54.262Z,20.40
2018-10-11T16:04:22.753Z,20.30
2018-10-11T16:06:51.302Z,20.30
2018-10-11T16:09:19.887Z,20.20
2018-10-11T16:11:48.416Z,20.10
2018-10-11T16:14:16.949Z,20.10
2018-10-11T16:16:45.434Z,20.10
2018-10-11T16:19:13.930Z,20.00
2018-10-11T16:21:42.445Z,20.00
2018-10-11T16:24:11.041Z,19.90
2018-10-11T16:26:39.566Z,19.80
2018-10-11T16:29:08.103Z,19.80
2018-10-11T16:31:36.571Z,19.80
2018-10-11T16:34:05.162Z,19.80
2018-10-11T16:36:33.637Z,19.70
2018-10-11T16:39:02.208Z,19.60
2018-10-11T16:41:30.762Z,19.60
2018-10-11T16:44:06.622Z,19.50
2018-10-11T16:46:38.703Z,19.50
2018-10-11T16:49:07.253Z,19.50
2018-10-11T16:51:35.733Z,19.40
2018-10-11T16:54:04.257Z,19.40
2018-10-11T16:56:32.758Z,19.40
2018-10-11T16:59:01.236Z,19.40
2018-10-11T17:01:29.705Z,19.30
2018-10-11T17:03:58.223Z,19.30
2018-10-11T17:06:26.668Z,19.20
2018-10-11T17:08:55.145Z,19.20
2018-10-11T17:11:24.446Z,19.10
2018-10-11T17:13:52.918Z,19.10
2018-10-11T17:16:21.412Z,19.10
2018-10-11T17:18:49.900Z,19.00
2018-10-11T17:21:18.376Z,19.00
2018-10-11T17:23:47.036Z,18.90
2018-10-11T17:26:15.366Z,18.90
2018-10-11T17:28:43.838Z,18.90
2018-10-11T17:31:12.317Z,18.90
2018-10-11T17:33:40.789Z,19.00
2018-10-11T17:36:09.261Z,19.00
2018-10-11T17:38:37.749Z,18.90
2018-10-11T17:41:06.334Z,19.00
2018-10-11T17:43:34.838Z,18.90
2018-10-11T17:46:03.291Z,18.90
2018-10-11T17:48:31.746Z,18.70
2018-10-11T17:51:00.205Z,18.70
2018-10-11T17:53:28.697Z,18.80
2018-10-11T17:55:57.230Z,18.80
2018-10-11T17:58:25.695Z,18.80
2018-10-11T18:00:54.181Z,18.80
2018-10-11T18:03:22.737Z,18.70
2018-10-11T18:05:51.158Z,18.70
2018-10-11T18:08:19.622Z,18.70
2018-10-11T18:10:48.116Z,18.80
2018-10-11T18:13:16.618Z,18.70
2018-10-11T18:15:45.131Z,18.50
2018-10-11T18:18:13.685Z,18.40
2018-10-11T18:20:42.156Z,18.40
2018-10-11T18:23:10.615Z,18.30
2018-10-11T18:25:39.139Z,18.20
2018-10-11T18:28:07.602Z,18.20
2018-10-11T18:30:36.076Z,18.10
2018-10-11T18:33:04.556Z,18.00
2018-10-11T18:35:33.096Z,18.00
2018-10-11T18:38:02.301Z,17.90
2018-10-11T18:40:30.808Z,18.00
2018-10-11T18:42:59.273Z,18.00
2018-10-11T18:45:27.749Z,17.90
2018-10-11T18:47:56.218Z,17.90
2018-10-11T18:50:24.715Z,17.90
2018-10-11T18:52:53.162Z,17.90
2018-10-11T18:55:22.331Z,17.90
2018-10-11T18:57:50.868Z,17.90
2018-10-11T19:00:19.392Z,17.90
2018-10-11T19:02:47.830Z,18.00
2018-10-11T19:05:16.306Z,18.00
2018-10-11T19:07:44.769Z,18.10
2018-10-11T19:10:13.248Z,18.10
2018-10-11T19:12:41.687Z,18.10
2018-10-11T19:15:10.193Z,18.00
2018-10-11T19:17:38.673Z,18.00
2018-10-11T19:20:07.224Z,18.00
2018-10-11T19:22:35.663Z,18.00
2018-10-11T19:25:04.217Z,17.90
2018-10-11T19:27:32.684Z,17.90
2018-10-11T19:30:01.154Z,17.90
2018-10-11T19:32:29.623Z,17.80
2018-10-11T19:34:58.084Z,17.80
2018-10-11T19:37:26.523Z,17.80
2018-10-11T19:39:54.990Z,17.80
2018-10-11T19:42:23.546Z,17.90
2018-10-11T19:44:52.153Z,17.90
2018-10-11T19:47:20.641Z,17.90
2018-10-11T19:49:49.068Z,17.80
2018-10-11T19:52:17.542Z,17.80
2018-10-11T19:54:45.996Z,17.80
2018-10-11T19:57:14.457Z,17.70
2018-10-11T19:59:42.891Z,17.70
2018-10-11T20:02:11.363Z,17.70
2018-10-11T20:04:39.841Z,17.70
2018-10-11T20:07:08.330Z,17.70
2018-10-11T20:09:37.054Z,17.60
2018-10-11T20:12:05.577Z,17.60
2018-10-11T20:14:34.068Z,17.50
2018-10-11T20:17:02.541Z,17.50
2018-10-11T20:19:30.992Z,17.40
2018-10-11T20:21:59.814Z,17.40
2018-10-11T20:24:28.470Z,17.40
2018-10-11T20:26:56.946Z,17.30
2018-10-11T20:29:25.428Z,17.30
2018-10-11T20:31:53.889Z,17.30
2018-10-11T20:34:22.344Z,17.30
2018-10-11T20:36:50.816Z,17.30
2018-10-11T20:39:19.264Z,17.30
2018-10-11T20:41:47.726Z,17.20
2018-10-11T20:44:16.198Z,17.20
2018-10-11T20:46:44.681Z,17.20
2018-10-11T20:49:13.121Z,17.20
2018-10-11T20:51:41.685Z,17.30
2018-10-11T20:54:10.095Z,17.40
2018-10-11T20:56:38.570Z,17.30
2018-10-11T20:59:07.505Z,17.20
2018-10-11T21:01:35.965Z,17.20
2018-10-11T21:04:04.425Z,17.10
2018-10-11T21:06:32.914Z,17.10
2018-10-11T21:09:01.351Z,17.00
2018-10-11T21:11:29.811Z,17.10
2018-10-11T21:13:58.281Z,17.10
2018-10-11T21:16:26.771Z,17.00
2018-10-11T21:18:55.212Z,17.00
2018-10-11T21:21:23.662Z,17.00
2018-10-11T21:23:52.118Z,17.00
2018-10-11T21:26:20.595Z,16.90
2018-10-11T21:28:49.028Z,16.90
2018-10-11T21:31:17.507Z,16.90
2018-10-11T21:33:45.945Z,16.80
2018-10-11T21:36:14.368Z,16.80
2018-10-11T21:38:42.824Z,16.80
2018-10-11T21:41:11.397Z,16.70
2018-10-11T21:43:39.917Z,16.70
2018-10-11T21:46:08.439Z,16.70
2018-10-11T21:48:36.852Z,16.70
2018-10-11T21:51:05.336Z,16.70
2018-10-11T21:53:33.812Z,16.60
2018-10-11T21:56:02.264Z,16.50
2018-10-11T21:58:30.741Z,16.50
2018-10-11T22:01:04.370Z,16.50
2018-10-11T22:03:32.868Z,16.50
2018-10-11T22:06:01.319Z,16.50
2018-10-11T22:08:29.825Z,16.50
2018-10-11T22:10:58.309Z,16.50
2018-10-11T22:13:26.777Z,16.50
2018-10-11T22:15:55.296Z,16.50
2018-10-11T22:18:23.800Z,16.50
2018-10-11T22:20:52.314Z,16.60
2018-10-11T22:23:20.805Z,16.60
2018-10-11T22:25:49.285Z,16.60
2018-10-11T22:28:17.770Z,16.60
2018-10-11T22:30:46.236Z,16.70
2018-10-11T22:33:14.745Z,16.70
2018-10-11T22:35:43.319Z,16.80
2018-10-11T22:38:11.802Z,16.80
2018-10-11T22:40:40.268Z,16.80
2018-10-11T22:43:08.794Z,16.80
2018-10-11T22:45:37.407Z,16.80
2018-10-11T22:48:05.976Z,16.80
2018-10-11T22:50:34.456Z,16.80
2018-10-11T22:53:02.974Z,16.80
2018-10-11T22:55:32.385Z,16.70
2018-10-11T22:58:01.510Z,16.70
2018-10-11T23:00:30.157Z,16.60
2018-10-11T23:02:58.747Z,16.70
2018-10-11T23:05:27.292Z,16.70
2018-10-11T23:07:55.777Z,16.70
2018-10-11T23:10:24.273Z,16.70
2018-10-11T23:12:52.761Z,16.70
2018-10-11T23:15:21.230Z,16.60
2018-10-11T23:17:49.693Z,16.60
2018-10-11T23:20:18.190Z,16.60
2018-10-11T23:22:46.698Z,16.60
2018-10-11T23:25:15.188Z,16.60
2018-10-11T23:27:43.645Z,16.60
2018-10-11T23:30:12.805Z,16.50
2018-10-11T23:32:42.129Z,16.50
2018-10-11T23:35:11.191Z,16.40
2018-10-11T23:37:40.059Z,16.30
2018-10-11T23:40:09.207Z,16.20
2018-10-11T23:42:37.713Z,16.20
2018-10-11T23:45:06.941Z,16.20
2018-10-11T23:47:35.409Z,16.10
2018-10-11T23:50:04.034Z,16.10
2018-10-11T23:52:32.596Z,16.00
2018-10-11T23:55:01.088Z,16.00
2018-10-11T23:57:29.540Z,15.90
2018-10-11T23:59:58.052Z,15.80
